Time;durP1;ratioP1;P1;durP2;ratioP2;P2;SDS_P1;SDS_P2;PMS_P1;PMS_P2;Temp;Humidity;BMP_temperature;BMP_pressure;BME280_temperature;BME280_humidity;BME280_pressure;Samples;Min_cycle;Max_cycle;Signal;HPM_P1;HPM_P2
2022/03/22 00:00:11;;;;;;;1.25;1.17;;;-3.40;99.90;;;;;;5071884;28;20193;-77
2022/03/22 00:02:37;;;;;;;0.88;0.88;;;-3.40;99.90;;;;;;5071691;28;20612;-77
2022/03/22 00:05:03;;;;;;;1.10;1.05;;;-3.40;99.90;;;;;;5071933;28;20208;-78
2022/03/22 00:07:30;;;;;;;0.82;0.82;;;-3.50;99.90;;;;;;5073039;28;20699;-78
2022/03/22 00:09:56;;;;;;;0.80;0.80;;;-3.50;99.90;;;;;;5071989;28;20196;-77
2022/03/22 00:12:28;;;;;;;1.00;1.00;;;-3.50;99.90;;;;;;5073169;28;20204;-78
2022/03/22 00:14:54;;;;;;;2.17;1.25;;;-3.50;99.90;;;;;;5055488;28;20204;-77
2022/03/22 00:17:24;;;;;;;0.63;0.63;;;-3.50;99.90;;;;;;5054977;28;20722;-79
2022/03/22 00:19:49;;;;;;;0.80;0.80;;;-3.60;99.90;;;;;;5055453;28;20201;-77
2022/03/22 00:25:01;;;;;;;0.82;0.82;;;-3.70;99.90;;;;;;5073007;28;20208;-78
2022/03/22 00:27:50;;;;;;;0.85;0.85;;;-3.70;99.90;;;;;;5055046;28;20737;-78
2022/03/22 00:30:13;;;;;;;5.60;2.50;;;-3.70;99.90;;;;;;5072560;28;20193;-79
2022/03/22 00:32:39;;;;;;;1.13;1.13;;;-3.70;99.90;;;;;;5054810;28;20794;-77
2022/03/22 00:35:05;;;;;;;1.48;1.38;;;-3.70;99.90;;;;;;5055131;28;20207;-77
2022/03/22 00:37:30;;;;;;;1.05;0.93;;;-3.70;99.90;;;;;;5072823;28;20193;-77
2022/03/22 00:39:56;;;;;;;9.75;3.60;;;-3.70;99.90;;;;;;5073657;28;20644;-77
2022/03/22 00:42:22;;;;;;;0.80;0.80;;;-3.80;99.90;;;;;;5051093;28;20907;-78
2022/03/22 00:44:48;;;;;;;1.08;1.08;;;-3.80;99.90;;;;;;5068127;28;20611;-77
2022/03/22 00:47:13;;;;;;;0.85;0.85;;;-3.80;99.90;;;;;;5054990;28;20230;-77
2022/03/22 00:49:39;;;;;;;0.77;0.77;;;-3.80;99.90;;;;;;5055097;28;20204;-77
2022/03/22 00:52:05;;;;;;;0.80;0.80;;;-3.80;99.90;;;;;;5071784;28;20737;-77
2022/03/22 00:54:35;;;;;;;0.88;0.88;;;-3.80;99.90;;;;;;5071504;28;20201;-77
2022/03/22 00:57:00;;;;;;;0.85;0.85;;;-3.70;99.90;;;;;;5071530;28;20288;-77
2022/03/22 01:02:10;;;;;;;0.70;0.70;;;-3.50;99.90;;;;;;5076669;28;20208;-77
2022/03/22 01:04:36;;;;;;;1.25;1.20;;;-3.60;99.90;;;;;;5064693;28;20205;-78
2022/03/22 01:07:03;;;;;;;1.30;1.20;;;-3.60;99.90;;;;;;5067902;28;20229;-77
2022/03/22 01:09:29;;;;;;;0.80;0.80;;;-3.60;99.90;;;;;;5068239;28;20185;-77
2022/03/22 01:11:56;;;;;;;0.85;0.85;;;-3.60;99.90;;;;;;5075169;28;20287;-77
2022/03/22 01:14:22;;;;;;;1.23;1.13;;;-3.70;99.90;;;;;;5075361;28;20200;-78
2022/03/22 01:16:48;;;;;;;0.80;0.80;;;-3.70;99.90;;;;;;5076323;28;20219;-77
2022/03/22 01:19:13;;;;;;;0.90;0.90;;;-3.80;99.90;;;;;;5074716;28;20344;-77
2022/03/22 01:21:39;;;;;;;0.80;0.80;;;-3.80;99.90;;;;;;5075811;28;20260;-77
2022/03/22 01:24:07;;;;;;;1.10;1.10;;;-3.80;99.90;;;;;;5074846;28;20219;-78
2022/03/22 01:26:33;;;;;;;0.70;0.70;;;-3.90;99.90;;;;;;5074739;28;20291;-78
2022/03/22 01:28:59;;;;;;;1.02;1.02;;;-3.90;99.90;;;;;;5074930;28;20201;-77
2022/03/22 01:31:25;;;;;;;1.67;1.58;;;-4.00;99.90;;;;;;5074560;28;20192;-77
2022/03/22 01:33:51;;;;;;;0.70;0.70;;;-4.00;99.90;;;;;;5074918;28;20683;-77
2022/03/22 01:36:17;;;;;;;1.17;1.13;;;-4.00;99.90;;;;;;5074709;28;20223;-78
2022/03/22 01:38:43;;;;;;;0.70;0.70;;;-4.00;99.90;;;;;;5074506;28;20278;-77
2022/03/22 01:41:09;;;;;;;0.60;0.60;;;-4.00;99.90;;;;;;5074046;28;20211;-77
2022/03/22 01:43:35;;;;;;;0.77;0.77;;;-4.00;99.90;;;;;;5074167;28;20201;-77
2022/03/22 01:46:02;;;;;;;1.90;1.80;;;-3.90;99.90;;;;;;5074351;28;20237;-77
2022/03/22 01:48:27;;;;;;;0.90;0.90;;;-4.00;99.90;;;;;;5073922;28;20276;-77
2022/03/22 01:50:54;;;;;;;1.20;1.17;;;-4.00;99.90;;;;;;5074110;28;20236;-77
2022/03/22 01:53:21;;;;;;;0.90;0.90;;;-4.10;99.90;;;;;;5073548;28;20219;-79
2022/03/22 01:55:47;;;;;;;1.00;1.00;;;-4.10;99.90;;;;;;5073767;28;20201;-78
2022/03/22 01:58:14;;;;;;;0.77;0.77;;;-4.10;99.90;;;;;;5065973;28;20642;-77
2022/03/22 02:00:40;;;;;;;0.80;0.80;;;-4.20;99.90;;;;;;5074085;28;20284;-80
2022/03/22 02:05:52;;;;;;;1.80;1.63;;;-4.20;99.90;;;;;;5075760;28;20246;-81
2022/03/22 02:08:19;;;;;;;0.70;0.70;;;-4.20;99.90;;;;;;5077255;28;20662;-81
2022/03/22 02:10:45;;;;;;;0.80;0.80;;;-4.20;99.90;;;;;;5077128;28;20196;-81
2022/03/22 02:13:11;;;;;;;0.88;0.88;;;-4.30;99.90;;;;;;5077304;28;20192;-81
2022/03/22 02:15:37;;;;;;;0.93;0.93;;;-4.30;99.90;;;;;;5095196;28;20764;-81
2022/03/22 02:18:03;;;;;;;1.60;1.50;;;-4.40;99.90;;;;;;5077248;28;20222;-81
2022/03/22 02:20:29;;;;;;;1.10;1.10;;;-4.40;99.90;;;;;;5077039;28;20507;-81
2022/03/22 02:23:10;;;;;;;1.38;1.27;;;-4.40;99.90;;;;;;5077424;28;20283;-81
2022/03/22 02:25:36;;;;;;;0.80;0.80;;;-4.50;99.90;;;;;;5076953;28;20211;-81
2022/03/22 02:28:03;;;;;;;0.90;0.90;;;-4.50;99.90;;;;;;5077129;28;20195;-81
2022/03/22 02:30:30;;;;;;;2.70;1.83;;;-4.50;99.90;;;;;;5094896;28;20262;-81
2022/03/22 02:32:59;;;;;;;0.90;0.90;;;-4.40;99.90;;;;;;5094521;28;20184;-79
2022/03/22 02:35:25;;;;;;;1.63;1.52;;;-4.40;99.90;;;;;;5076541;28;20204;-80
2022/03/22 02:37:51;;;;;;;0.80;0.80;;;-4.30;99.90;;;;;;5076864;28;20203;-81
2022/03/22 02:40:18;;;;;;;1.90;1.70;;;-4.30;99.90;;;;;;5076904;28;20614;-81
2022/03/22 02:42:47;;;;;;;1.30;1.25;;;-4.30;99.90;;;;;;5076775;28;20287;-82
2022/03/22 02:45:13;;;;;;;0.80;0.80;;;-4.20;99.90;;;;;;5076844;28;20277;-81
2022/03/22 02:47:39;;;;;;;0.80;0.80;;;-4.20;99.90;;;;;;5076514;28;20199;-81
2022/03/22 02:50:06;;;;;;;2.47;1.77;;;-4.10;99.90;;;;;;5076674;28;20192;-81
2022/03/22 02:52:33;;;;;;;0.65;0.65;;;-4.00;99.90;;;;;;5094812;28;20607;-81
2022/03/22 02:54:58;;;;;;;1.48;1.38;;;-3.90;99.90;;;;;;5094614;28;20242;-81
2022/03/22 02:57:24;;;;;;;0.77;0.77;;;-3.80;99.90;;;;;;5076507;28;20204;-81
2022/03/22 02:59:50;;;;;;;0.80;0.80;;;-3.60;99.90;;;;;;5076801;28;20192;-81
2022/03/22 03:02:16;;;;;;;0.80;0.80;;;-3.50;99.90;;;;;;5074367;28;20264;-82
2022/03/22 03:04:41;;;;;;;1.73;1.63;;;-3.40;99.90;;;;;;5075959;28;20283;-81
2022/03/22 03:07:07;;;;;;;0.93;0.93;;;-3.30;99.90;;;;;;5075484;28;20224;-81
2022/03/22 03:09:33;;;;;;;1.17;1.08;;;-3.20;99.90;;;;;;5075694;28;20189;-81
2022/03/22 03:11:59;;;;;;;0.77;0.77;;;-3.10;99.90;;;;;;5076443;28;20192;-81
2022/03/22 03:14:39;;;;;;;1.50;1.40;;;-3.00;99.90;;;;;;5094016;28;20195;-80
2022/03/22 03:17:12;;;;;;;0.85;0.85;;;-2.90;99.90;;;;;;5076048;28;20353;-83
2022/03/22 03:19:38;;;;;;;1.23;1.10;;;-2.80;99.90;;;;;;5075899;28;20210;-81
2022/03/22 03:22:05;;;;;;;0.80;0.80;;;-2.70;99.90;;;;;;5075283;28;20570;-81
2022/03/22 03:24:31;;;;;;;0.70;0.70;;;-2.70;99.90;;;;;;5075591;28;20204;-82
2022/03/22 03:26:58;;;;;;;0.60;0.60;;;-2.70;99.90;;;;;;5075869;28;20645;-82
2022/03/22 03:29:24;;;;;;;0.90;0.90;;;-2.70;99.90;;;;;;5076292;28;20651;-81
2022/03/22 03:31:50;;;;;;;3.22;1.15;;;-2.70;99.90;;;;;;5076286;28;20304;-81
2022/03/22 03:34:17;;;;;;;2.17;1.70;;;-2.80;99.90;;;;;;5076343;28;20219;-81
2022/03/22 03:36:43;;;;;;;0.98;0.98;;;-2.80;99.90;;;;;;5074730;28;20222;-81
2022/03/22 03:39:10;;;;;;;0.75;0.75;;;-2.90;99.90;;;;;;5075725;28;20196;-81
2022/03/22 03:41:53;;;;;;;0.70;0.70;;;-2.90;99.90;;;;;;5075389;28;20199;-81
2022/03/22 03:47:11;;;;;;;1.25;1.20;;;-3.00;99.90;;;;;;5094279;28;20241;-81
2022/03/22 03:49:46;;;;;;;0.80;0.80;;;-3.10;99.90;;;;;;5093325;28;20200;-82
2022/03/22 03:52:14;;;;;;;1.55;1.45;;;-3.00;99.90;;;;;;5075486;28;20191;-82
2022/03/22 03:54:40;;;;;;;0.98;0.98;;;-3.00;99.90;;;;;;5075648;28;20638;-82
2022/03/22 03:57:07;;;;;;;1.02;0.98;;;-3.00;99.90;;;;;;5074824;28;20733;-82
2022/03/22 03:59:34;;;;;;;1.45;1.35;;;-3.00;99.90;;;;;;5075223;28;20200;-82
2022/03/22 04:02:00;;;;;;;0.88;0.88;;;-3.00;99.90;;;;;;5075060;28;20223;-83
2022/03/22 04:04:26;;;;;;;0.80;0.80;;;-2.90;99.90;;;;;;5074342;28;20666;-82
2022/03/22 04:06:52;;;;;;;0.82;0.82;;;-2.80;99.90;;;;;;5071805;28;20236;-82
2022/03/22 04:09:18;;;;;;;2.63;2.42;;;-2.80;99.90;;;;;;5071743;28;20748;-82
2022/03/22 04:11:44;;;;;;;0.77;0.77;;;-2.80;99.90;;;;;;5071766;28;20308;-81
2022/03/22 04:14:10;;;;;;;0.90;0.90;;;-2.80;99.90;;;;;;5071910;28;20205;-82
2022/03/22 04:16:36;;;;;;;2.05;1.88;;;-2.70;99.90;;;;;;5073072;28;20188;-82
2022/03/22 04:19:04;;;;;;;0.80;0.80;;;-2.70;99.90;;;;;;5072008;28;20667;-82
2022/03/22 04:21:30;;;;;;;1.05;1.05;;;-2.60;99.90;;;;;;5071717;28;20319;-82
2022/03/22 04:23:55;;;;;;;0.77;0.77;;;-2.50;99.90;;;;;;5071686;28;20212;-81
2022/03/22 04:26:21;;;;;;;0.85;0.85;;;-2.50;99.90;;;;;;5071671;28;20189;-81
2022/03/22 04:34:16;;;;;;;0.95;0.95;;;-2.50;99.90;;;;;;5073972;28;20207;-82
2022/03/22 04:36:41;;;;;;;0.70;0.70;;;-2.50;99.90;;;;;;5077188;28;20185;-82
2022/03/22 04:39:07;;;;;;;0.80;0.80;;;-2.50;99.90;;;;;;5075637;28;20651;-81
2022/03/22 04:41:33;;;;;;;0.95;0.95;;;-2.50;99.90;;;;;;5075280;28;20200;-81
2022/03/22 04:43:58;;;;;;;1.05;1.05;;;-2.50;99.90;;;;;;5075842;28;20219;-81
2022/03/22 04:46:33;;;;;;;1.45;1.35;;;-2.60;99.90;;;;;;5076548;28;20192;-82
2022/03/22 04:48:59;;;;;;;1.00;1.00;;;-2.60;99.90;;;;;;5077022;28;20188;-82
2022/03/22 04:56:54;;;;;;;0.80;0.80;;;-2.80;99.90;;;;;;5076992;28;20550;-81
2022/03/22 04:59:22;;;;;;;1.10;1.10;;;-2.90;99.90;;;;;;5075606;28;20205;-82
2022/03/22 05:01:49;;;;;;;1.08;1.02;;;-2.90;99.90;;;;;;5075298;28;20246;-82
2022/03/22 05:04:15;;;;;;;1.45;1.25;;;-3.00;99.90;;;;;;5071794;28;20205;-82
2022/03/22 05:06:41;;;;;;;1.00;1.00;;;-3.00;99.90;;;;;;5069629;28;20246;-82
2022/03/22 05:09:08;;;;;;;2.30;2.10;;;-3.10;99.90;;;;;;5058477;28;20284;-82
2022/03/22 05:11:34;;;;;;;1.67;1.58;;;-3.10;99.90;;;;;;5058349;28;20197;-82
2022/03/22 05:14:00;;;;;;;0.93;0.93;;;-3.10;99.90;;;;;;5058337;28;20193;-82
2022/03/22 05:16:26;;;;;;;0.98;0.98;;;-3.20;99.90;;;;;;5058075;28;20197;-82
2022/03/22 05:18:53;;;;;;;0.80;0.80;;;-3.30;99.90;;;;;;5058294;28;20200;-82
2022/03/22 05:21:19;;;;;;;1.00;1.00;;;-3.20;99.90;;;;;;5075419;28;20569;-82
2022/03/22 05:23:45;;;;;;;0.88;0.88;;;-3.30;99.90;;;;;;5057631;28;20632;-83
2022/03/22 05:26:12;;;;;;;1.88;1.70;;;-3.30;99.90;;;;;;5092793;28;20192;-82
2022/03/22 05:28:39;;;;;;;1.13;1.08;;;-3.40;99.90;;;;;;5078216;28;20235;-83
2022/03/22 05:31:05;;;;;;;0.82;0.80;;;-3.40;99.90;;;;;;5095056;28;20307;-83
2022/03/22 05:33:32;;;;;;;0.73;0.73;;;-3.30;99.90;;;;;;5078311;28;20192;-82
2022/03/22 05:36:00;;;;;;;1.52;1.42;;;-3.30;99.90;;;;;;5096342;28;20606;-81
2022/03/22 05:38:26;;;;;;;0.77;0.77;;;-3.20;99.90;;;;;;5078540;28;20230;-82
2022/03/22 05:40:53;;;;;;;1.10;1.10;;;-3.20;99.90;;;;;;5096221;28;20285;-82
2022/03/22 05:43:19;;;;;;;0.70;0.70;;;-3.00;99.90;;;;;;5078098;28;20204;-83
2022/03/22 05:45:48;;;;;;;3.80;1.27;;;-2.90;99.90;;;;;;5077361;28;20207;-82
2022/03/22 05:48:23;;;;;;;0.80;0.80;;;-2.80;99.90;;;;;;5077811;28;20257;-81
2022/03/22 05:50:50;;;;;;;0.80;0.80;;;-2.70;99.90;;;;;;5096227;28;20188;-81
2022/03/22 05:53:16;;;;;;;0.70;0.70;;;-2.60;99.90;;;;;;5077924;28;20196;-81
2022/03/22 05:55:42;;;;;;;0.80;0.80;;;-2.50;99.90;;;;;;5078067;28;20544;-82
2022/03/22 05:58:09;;;;;;;2.05;1.75;;;-2.40;99.90;;;;;;5095694;28;20279;-81
2022/03/22 06:00:35;;;;;;;2.80;2.05;;;-2.40;99.90;;;;;;5095577;28;20196;-82
2022/03/22 06:03:02;;;;;;;0.80;0.80;;;-2.30;99.90;;;;;;5076898;28;20608;-81
2022/03/22 06:05:31;;;;;;;1.20;1.10;;;-2.20;99.90;;;;;;5095028;28;20648;-82
2022/03/22 06:07:58;;;;;;;0.77;0.77;;;-2.20;99.90;;;;;;5077511;28;20188;-82
2022/03/22 06:10:26;;;;;;;0.90;0.90;;;-2.00;99.90;;;;;;5095603;28;20607;-81
2022/03/22 06:12:54;;;;;;;0.80;0.80;;;-1.80;99.90;;;;;;5077466;28;20223;-81
2022/03/22 06:15:24;;;;;;;6.20;2.38;;;-1.70;99.90;;;;;;5095621;28;20569;-81
2022/03/22 06:17:58;;;;;;;0.80;0.80;;;-1.50;99.90;;;;;;5095557;28;20647;-83
2022/03/22 06:20:32;;;;;;;0.77;0.77;;;-1.30;99.90;;;;;;5077140;28;20200;-82
2022/03/22 06:23:00;;;;;;;0.98;0.98;;;-1.10;99.90;;;;;;5057586;28;20201;-82
2022/03/22 06:25:26;;;;;;;0.80;0.80;;;-0.90;99.90;;;;;;5075150;28;20213;-81
2022/03/22 06:27:53;;;;;;;1.42;1.27;;;-0.80;99.90;;;;;;5070293;28;20647;-82
2022/03/22 06:30:20;;;;;;;0.80;0.80;;;-0.70;99.90;;;;;;5077093;28;20188;-83
2022/03/22 06:32:52;;;;;;;1.10;1.10;;;-0.70;99.90;;;;;;5078266;28;20573;-82
2022/03/22 06:35:23;;;;;;;2.45;2.10;;;-0.70;99.90;;;;;;5074947;28;20590;-82
2022/03/22 06:37:50;;;;;;;0.90;0.90;;;-0.80;99.90;;;;;;5074808;28;20655;-82
2022/03/22 06:40:18;;;;;;;3.13;1.50;;;-0.90;99.90;;;;;;5083169;28;20230;-80
2022/03/22 06:42:44;;;;;;;0.88;0.88;;;-0.90;99.90;;;;;;5094977;28;20554;-82
2022/03/22 06:45:11;;;;;;;1.13;1.13;;;-0.90;99.90;;;;;;5092942;28;20261;-82
2022/03/22 06:47:39;;;;;;;1.63;1.52;;;-0.80;99.90;;;;;;5075872;28;20199;-82
2022/03/22 06:50:06;;;;;;;0.88;0.88;;;-0.80;99.90;;;;;;5076530;28;20202;-82
2022/03/22 06:52:31;;;;;;;1.15;1.08;;;-0.60;99.90;;;;;;5076316;28;20196;-82
2022/03/22 06:54:58;;;;;;;1.48;1.40;;;-0.50;99.90;;;;;;5076421;28;20258;-82
2022/03/22 06:57:24;;;;;;;2.28;1.73;;;-0.40;99.90;;;;;;5075071;28;20245;-82
2022/03/22 06:59:49;;;;;;;1.10;1.08;;;-0.30;99.90;;;;;;5076537;28;20562;-82
2022/03/22 07:02:18;;;;;;;0.70;0.70;;;-0.20;99.90;;;;;;5076228;28;20196;-82
2022/03/22 07:04:44;;;;;;;1.63;1.52;;;0.00;99.90;;;;;;5094184;28;20544;-83
2022/03/22 07:07:10;;;;;;;0.70;0.70;;;0.10;99.90;;;;;;5076858;28;20220;-83
2022/03/22 07:09:35;;;;;;;0.77;0.77;;;0.20;99.90;;;;;;5056020;28;20249;-83
2022/03/22 07:12:01;;;;;;;2.40;1.58;;;0.40;99.90;;;;;;5056019;28;20212;-83
2022/03/22 07:14:28;;;;;;;0.93;0.93;;;0.50;99.90;;;;;;5056051;28;20208;-82
2022/03/22 07:16:57;;;;;;;3.70;2.25;;;0.60;99.90;;;;;;5054781;28;20655;-83
2022/03/22 07:19:23;;;;;;;1.25;1.20;;;0.90;99.90;;;;;;5055597;28;20550;-83
2022/03/22 07:21:50;;;;;;;0.70;0.70;;;1.00;99.90;;;;;;5055319;28;20573;-83
2022/03/22 07:24:20;;;;;;;0.60;0.60;;;1.10;99.90;;;;;;5072418;28;20278;-82
2022/03/22 07:26:45;;;;;;;1.15;1.05;;;1.40;99.90;;;;;;5055787;28;20196;-82
2022/03/22 07:29:13;;;;;;;0.52;0.52;;;1.70;99.90;;;;;;5073939;28;20686;-82
2022/03/22 07:31:39;;;;;;;0.70;0.70;;;1.90;99.90;;;;;;5073602;28;20667;-82
2022/03/22 07:34:11;;;;;;;2.40;2.15;;;2.10;99.90;;;;;;5073527;28;20196;-82
2022/03/22 07:36:39;;;;;;;0.80;0.80;;;2.20;99.90;;;;;;5055347;28;20215;-82
2022/03/22 07:39:06;;;;;;;0.60;0.60;;;2.30;99.90;;;;;;5073805;28;20227;-82
2022/03/22 07:41:31;;;;;;;0.70;0.70;;;2.40;99.90;;;;;;5055421;28;20283;-83
2022/03/22 07:43:57;;;;;;;2.10;1.50;;;2.50;99.90;;;;;;5055508;28;20284;-82
2022/03/22 07:46:23;;;;;;;0.77;0.77;;;2.70;99.90;;;;;;5087767;28;20212;-82
2022/03/22 07:48:50;;;;;;;0.80;0.80;;;2.80;99.90;;;;;;5072233;28;20196;-83
2022/03/22 07:54:01;;;;;;;0.82;0.82;;;2.80;99.90;;;;;;5073514;28;20291;-82
2022/03/22 07:56:27;;;;;;;2.15;1.60;;;3.00;99.90;;;;;;5071789;28;20690;-83
2022/03/22 07:58:53;;;;;;;0.70;0.70;;;3.10;99.90;;;;;;5073433;28;20326;-83
2022/03/22 08:01:18;;;;;;;0.70;0.70;;;3.20;99.90;;;;;;5071189;28;20283;-83
2022/03/22 08:03:45;;;;;;;1.50;1.40;;;3.20;99.90;;;;;;5052136;28;20640;-83
2022/03/22 08:06:10;;;;;;;0.70;0.70;;;3.20;99.90;;;;;;5081714;28;20286;-82
2022/03/22 08:08:37;;;;;;;0.73;0.73;;;3.30;99.90;;;;;;5075321;28;20283;-83
2022/03/22 08:11:05;;;;;;;9.23;2.30;;;3.60;99.90;;;;;;5093256;28;20192;-83
2022/03/22 08:13:32;;;;;;;0.88;0.80;;;3.80;99.90;;;;;;5075336;28;20555;-83
2022/03/22 08:15:57;;;;;;;0.63;0.63;;;4.00;99.90;;;;;;5075233;28;20675;-82
2022/03/22 08:18:24;;;;;;;1.25;1.00;;;4.20;99.90;;;;;;5074895;28;20222;-83
2022/03/22 08:20:49;;;;;;;1.58;1.48;;;4.30;99.90;;;;;;5074993;28;20196;-83
2022/03/22 08:23:15;;;;;;;2.95;1.95;;;4.40;99.90;;;;;;5075317;28;20620;-80
2022/03/22 08:25:46;;;;;;;0.80;0.80;;;4.50;99.90;;;;;;5074712;28;20226;-82
2022/03/22 08:28:14;;;;;;;0.98;0.98;;;4.60;99.90;;;;;;5093020;28;20230;-83
2022/03/22 08:30:40;;;;;;;1.02;1.02;;;4.70;99.90;;;;;;5074782;28;20196;-83
2022/03/22 08:33:07;;;;;;;1.30;1.23;;;4.70;99.90;;;;;;5074483;28;20246;-83
2022/03/22 08:35:34;;;;;;;1.98;1.85;;;4.70;99.90;;;;;;5074012;28;20203;-83
2022/03/22 08:38:00;;;;;;;1.13;1.13;;;4.70;99.90;;;;;;5074185;28;20747;-83
2022/03/22 08:40:25;;;;;;;1.83;1.70;;;4.70;99.90;;;;;;5074064;28;20224;-83
2022/03/22 08:42:53;;;;;;;1.05;1.02;;;5.00;99.90;;;;;;5092377;28;20192;-83
2022/03/22 08:45:21;;;;;;;2.58;1.75;;;5.10;99.90;;;;;;5073878;28;20252;-83
2022/03/22 08:47:48;;;;;;;2.80;2.17;;;5.30;99.90;;;;;;5074253;28;20698;-83
2022/03/22 08:50:17;;;;;;;0.80;0.80;;;5.60;99.90;;;;;;5074162;28;20203;-83
2022/03/22 08:52:44;;;;;;;1.13;1.08;;;5.90;99.90;;;;;;5074008;28;20232;-82
2022/03/22 08:55:14;;;;;;;1.75;1.65;;;6.00;99.90;;;;;;5074131;28;20196;-83
2022/03/22 08:57:42;;;;;;;0.68;0.68;;;6.30;99.90;;;;;;5091917;28;20203;-83
2022/03/22 09:00:11;;;;;;;3.80;1.98;;;6.30;99.90;;;;;;5074105;28;20204;-83
2022/03/22 09:02:40;;;;;;;0.75;0.75;;;6.40;99.90;;;;;;5074374;28;20218;-83
2022/03/22 09:07:53;;;;;;;1.50;1.40;;;6.80;99.90;;;;;;5073137;28;20262;-82
2022/03/22 09:10:22;;;;;;;6.40;1.50;;;7.10;99.90;;;;;;5073224;28;20227;-83
2022/03/22 09:12:51;;;;;;;1.95;1.30;;;7.20;99.90;;;;;;5108372;28;20223;-83
2022/03/22 09:15:19;;;;;;;0.70;0.70;;;7.30;99.90;;;;;;5094852;28;20202;-83
2022/03/22 09:17:45;;;;;;;0.80;0.80;;;7.40;99.90;;;;;;5112501;28;20195;-83
2022/03/22 09:20:13;;;;;;;1.90;1.73;;;7.40;99.90;;;;;;5094797;28;20540;-82
2022/03/22 09:22:43;;;;;;;2.47;2.28;;;7.40;99.90;;;;;;5115979;28;20263;-82
2022/03/22 09:25:11;;;;;;;3.85;1.52;;;7.20;99.90;;;;;;5097797;28;20204;-82
2022/03/22 09:27:43;;;;;;;7.15;2.20;;;7.50;99.90;;;;;;5092599;28;20235;-83
2022/03/22 09:30:11;;;;;;;3.67;2.05;;;7.50;99.90;;;;;;5077380;28;20184;-82
2022/03/22 09:32:38;;;;;;;2.17;1.42;;;7.60;99.90;;;;;;5077233;28;20216;-83
2022/03/22 09:35:07;;;;;;;1.60;1.35;;;7.90;99.90;;;;;;5083892;28;20552;-82
2022/03/22 09:37:41;;;;;;;1.02;1.00;;;8.20;99.90;;;;;;5097391;28;20195;-83
2022/03/22 09:40:08;;;;;;;0.82;0.82;;;8.40;99.90;;;;;;5115878;28;20245;-83
2022/03/22 09:42:38;;;;;;;1.35;1.20;;;8.30;99.90;;;;;;5097158;28;20200;-83
2022/03/22 09:45:08;;;;;;;1.58;1.48;;;8.40;99.90;;;;;;5097357;28;20207;-83
2022/03/22 09:47:38;;;;;;;1.13;1.00;;;8.40;99.90;;;;;;5114220;28;20324;-83
2022/03/22 09:50:06;;;;;;;1.95;1.77;;;8.40;99.90;;;;;;5097336;28;20187;-83
2022/03/22 09:52:36;;;;;;;4.07;2.05;;;8.50;99.90;;;;;;5115328;28;20199;-83
2022/03/22 09:55:03;;;;;;;0.98;0.98;;;8.60;99.90;;;;;;5096816;28;20207;-83
2022/03/22 09:57:29;;;;;;;1.25;1.15;;;8.80;99.90;;;;;;5096908;28;20700;-83
2022/03/22 09:59:54;;;;;;;2.17;1.98;;;9.10;99.90;;;;;;5097344;28;20199;-83
2022/03/22 10:02:28;;;;;;;2.35;1.38;;;9.00;99.90;;;;;;5097326;28;20195;-83
2022/03/22 10:04:54;;;;;;;3.42;2.03;;;9.10;99.90;;;;;;5079288;28;20209;-82
2022/03/22 10:07:21;;;;;;;1.88;1.73;;;9.20;99.90;;;;;;5068538;28;20315;-83
2022/03/22 10:10:06;;;;;;;2.20;2.00;;;8.90;99.90;;;;;;5075230;28;20193;-83
2022/03/22 10:12:36;;;;;;;38.90;2.25;;;9.20;99.90;;;;;;5073368;28;20197;-83
2022/03/22 10:15:18;;;;;;;1.52;1.27;;;9.50;99.90;;;;;;5074137;28;20201;-83
2022/03/22 10:17:46;;;;;;;1.73;1.38;;;9.50;99.90;;;;;;5077911;28;20213;-83
2022/03/22 10:20:23;;;;;;;2.38;1.45;;;9.50;99.90;;;;;;5074533;28;20605;-84
2022/03/22 10:22:58;;;;;;;1.70;1.60;;;9.70;99.90;;;;;;5075858;28;20198;-86
2022/03/22 10:25:24;;;;;;;1.75;1.50;;;9.80;99.90;;;;;;5073309;28;20291;-83
2022/03/22 10:27:54;;;;;;;3.70;2.30;;;9.90;99.90;;;;;;5073526;28;20283;-83
2022/03/22 10:30:20;;;;;;;2.67;1.63;;;10.00;99.90;;;;;;5073547;28;20199;-83
2022/03/22 10:32:54;;;;;;;1.02;1.02;;;10.30;99.90;;;;;;5072547;28;20204;-83
2022/03/22 10:35:25;;;;;;;4.95;2.63;;;10.30;99.90;;;;;;5074037;28;20691;-83
2022/03/22 10:38:02;;;;;;;5.95;3.47;;;10.40;99.90;;;;;;5072683;28;20200;-83
2022/03/22 10:40:41;;;;;;;1.60;1.50;;;10.20;99.90;;;;;;5073895;28;20659;-84
2022/03/22 10:43:11;;;;;;;3.67;2.38;;;10.20;99.90;;;;;;5072886;28;20295;-83
2022/03/22 10:45:41;;;;;;;4.50;2.75;;;10.40;99.90;;;;;;5073609;28;20208;-83
2022/03/22 10:48:07;;;;;;;1.63;1.50;;;10.70;99.90;;;;;;5073420;28;20234;-83
2022/03/22 10:50:43;;;;;;;2.78;2.38;;;10.90;99.90;;;;;;5073381;28;20559;-82
2022/03/22 10:53:14;;;;;;;1.98;1.77;;;11.00;99.70;;;;;;5073615;28;20600;-83
2022/03/22 10:55:41;;;;;;;1.65;1.55;;;10.90;98.80;;;;;;5072996;28;20656;-83
2022/03/22 10:58:08;;;;;;;2.03;1.85;;;10.80;99.80;;;;;;5074366;28;20663;-83
2022/03/22 11:00:36;;;;;;;1.45;1.35;;;11.00;99.90;;;;;;5073067;28;20200;-84
2022/03/22 11:03:08;;;;;;;2.60;2.08;;;11.00;99.90;;;;;;5075382;28;20212;-84
2022/03/22 11:05:34;;;;;;;2.50;1.85;;;11.10;99.00;;;;;;5075909;28;20659;-84
2022/03/22 11:08:00;;;;;;;2.60;2.28;;;11.20;98.30;;;;;;5076285;28;20203;-83
2022/03/22 11:10:29;;;;;;;2.03;1.90;;;11.00;99.10;;;;;;5075469;28;20327;-83
2022/03/22 11:12:59;;;;;;;1.00;1.00;;;11.10;99.50;;;;;;5076027;28;20225;-84
2022/03/22 11:15:35;;;;;;;5.43;2.60;;;10.80;98.90;;;;;;5076477;28;20200;-85
2022/03/22 11:18:02;;;;;;;2.42;1.60;;;11.10;99.90;;;;;;5094204;28;20199;-84
2022/03/22 11:20:28;;;;;;;7.28;2.90;;;11.50;98.90;;;;;;5075809;28;20230;-85
2022/03/22 11:23:00;;;;;;;1.42;1.33;;;11.40;98.10;;;;;;5075754;28;20192;-85
2022/03/22 11:25:34;;;;;;;3.38;2.40;;;11.00;98.70;;;;;;5075627;28;20253;-84
2022/03/22 11:28:08;;;;;;;3.40;2.60;;;11.00;98.90;;;;;;5075549;28;20211;-84
2022/03/22 11:30:36;;;;;;;5.53;2.10;;;11.40;99.10;;;;;;5075569;28;20673;-84
2022/03/22 11:35:57;;;;;;;2.25;2.05;;;11.50;99.90;;;;;;5094036;28;20195;-83
2022/03/22 11:38:51;;;;;;;3.38;3.08;;;11.40;98.10;;;;;;5093565;28;20662;-82
2022/03/22 11:44:21;;;;;;;2.65;2.25;;;12.10;99.60;;;;;;5093778;28;20210;-81
2022/03/22 11:47:27;;;;;;;2.40;1.70;;;12.20;99.40;;;;;;5093918;28;20188;-81
2022/03/22 11:50:07;;;;;;;5.22;1.42;;;12.50;96.60;;;;;;5075149;28;20249;-82
2022/03/22 11:52:39;;;;;;;2.80;2.30;;;12.20;96.40;;;;;;5075145;28;20272;-82
2022/03/22 11:55:18;;;;;;;2.97;1.88;;;12.50;97.00;;;;;;5075115;28;20685;-82
2022/03/22 11:57:46;;;;;;;2.17;1.95;;;12.30;94.80;;;;;;5074589;28;20192;-82
2022/03/22 12:00:32;;;;;;;2.10;1.80;;;12.20;97.50;;;;;;5074635;28;20687;-83
2022/03/22 12:02:59;;;;;;;1.70;1.60;;;12.10;96.50;;;;;;5091399;28;20196;-83
2022/03/22 12:05:24;;;;;;;5.70;2.90;;;11.90;97.30;;;;;;5073875;28;20566;-83
2022/03/22 12:07:51;;;;;;;2.55;1.95;;;11.90;97.20;;;;;;5074552;28;20291;-82
2022/03/22 12:10:20;;;;;;;4.15;2.10;;;11.80;95.60;;;;;;5074801;28;20203;-82
2022/03/22 12:12:52;;;;;;;2.13;1.70;;;11.90;96.40;;;;;;5074531;28;20234;-82
2022/03/22 12:15:21;;;;;;;1.10;1.10;;;11.70;96.40;;;;;;5093976;28;20196;-83
2022/03/22 12:17:48;;;;;;;1.75;1.63;;;11.70;97.00;;;;;;5067362;28;20197;-82
2022/03/22 12:20:16;;;;;;;6.57;2.60;;;12.00;97.70;;;;;;5075455;28;20196;-84
2022/03/22 12:22:47;;;;;;;1.98;1.58;;;11.80;95.60;;;;;;5075014;28;20200;-82
2022/03/22 12:25:17;;;;;;;2.22;2.03;;;11.40;96.10;;;;;;5086286;28;20309;-81
2022/03/22 12:27:57;;;;;;;2.97;1.42;;;11.30;97.50;;;;;;5113773;28;20183;-81
2022/03/22 12:30:28;;;;;;;1.60;1.50;;;11.00;97.90;;;;;;5095764;28;20191;-84
2022/03/22 12:32:58;;;;;;;1.73;1.58;;;11.20;98.60;;;;;;5095828;28;20199;-82
2022/03/22 12:35:25;;;;;;;1.17;1.17;;;11.30;97.80;;;;;;5095188;28;20668;-82
2022/03/22 12:37:52;;;;;;;3.85;2.33;;;10.90;97.30;;;;;;5095472;28;20653;-83
2022/03/22 12:40:20;;;;;;;1.17;1.13;;;10.70;99.40;;;;;;5113400;28;20593;-84
2022/03/22 12:42:50;;;;;;;2.92;1.58;;;10.90;98.70;;;;;;5113196;28;20236;-83
2022/03/22 12:45:17;;;;;;;0.93;0.93;;;10.70;98.20;;;;;;5111472;28;20243;-82
2022/03/22 12:47:44;;;;;;;1.42;0.90;;;10.40;99.20;;;;;;5094455;28;20188;-83
2022/03/22 12:50:15;;;;;;;1.63;1.52;;;10.20;99.60;;;;;;5094544;28;20252;-82
2022/03/22 12:52:41;;;;;;;1.08;1.08;;;10.00;99.90;;;;;;5112613;28;20191;-83
2022/03/22 12:55:09;;;;;;;29.05;3.95;;;10.00;99.90;;;;;;5105656;28;20643;-83
2022/03/22 12:57:40;;;;;;;1.67;1.58;;;9.90;99.90;;;;;;5077819;28;20212;-82
2022/03/22 13:00:07;;;;;;;1.52;1.42;;;10.30;99.90;;;;;;5078103;28;20199;-82
2022/03/22 13:02:35;;;;;;;1.90;1.30;;;10.90;99.90;;;;;;5072732;28;20200;-83
2022/03/22 13:05:01;;;;;;;2.40;2.10;;;11.30;99.20;;;;;;5075053;28;20213;-82
2022/03/22 13:07:27;;;;;;;1.77;1.48;;;11.60;98.30;;;;;;5058512;28;20370;-82
2022/03/22 13:12:45;;;;;;;3.63;2.10;;;11.80;99.90;;;;;;5076658;28;20235;-83
2022/03/22 13:15:17;;;;;;;1.80;1.70;;;11.50;98.70;;;;;;5058974;28;20669;-82
2022/03/22 13:17:48;;;;;;;1.27;1.17;;;11.30;98.10;;;;;;5058383;28;20698;-82
2022/03/22 13:20:24;;;;;;;3.22;1.83;;;11.10;98.40;;;;;;5067921;28;20700;-83
2022/03/22 13:22:54;;;;;;;1.98;1.85;;;11.20;98.90;;;;;;5096480;28;20678;-82
2022/03/22 13:25:30;;;;;;;1.33;1.00;;;10.90;99.10;;;;;;5077995;28;20204;-82
2022/03/22 13:28:02;;;;;;;1.55;1.45;;;10.60;99.80;;;;;;5096378;28;20560;-81
2022/03/22 13:30:30;;;;;;;3.50;1.63;;;10.40;99.90;;;;;;5078212;28;20721;-81